Key West, Naval Air Station Key West (KNQX)

NameNaval Air Station Key West
CityKey West
CountryUnited States
ICAOKNQX
IATANQX
Altitude1 m
CoordinatesGoogle Map
Live Air TrafficLiveATC.net
METARKNQX 172053Z 02010KT 10SM BKN048 22/16 A3014 RMK AO2 SLP205 T02220156 56015
2019-01-17 20:53:00 Wind: North (20°) 5.14 m/s - Visibility: 16093.4 m - Temperature: 22 °C - Dew point: 16 °C - Humidity: 68.9% - Pressure: 1020.66 hPa
Statistics

The table below shows the detailed information of all flights to/from Key West, Naval Air Station Key West (KNQX).

Ident Aircraft Coming fromFrom Going toTo Owner nameOwnerSpotted durationDurationDate
N311NV - A319 - Allegiant Air AAY8064 AIRBUS A-319 A319 Key West, United States (KNQX) KNQX
3580 km
, United States (KSFB) KSFB
3448 km
Allegiant Air Allegiant Air 00:40:47 00:40:47 Tue, 20 Nov 2018 23:50:10 +0000 20/11/2018 11:50 pm
Wed, 21 Nov 2018 00:30:57 +0000 21/11/2018 12:30 am
N309NV - A319 - Allegiant Air AAY8075 AIRBUS A-319 A319 Key West, United States (KNQX) KNQX
811 km
, United States (KIWA) KIWA
2405 km
Allegiant Air Allegiant Air 01:16:25 01:16:25 Sun, 18 Nov 2018 03:34:49 +0000 18/11/2018 3:34 am
Sun, 18 Nov 2018 04:51:14 +0000 18/11/2018 4:51 am
N309NV - A319 - Allegiant Air AAY8073 AIRBUS A-319 A319 Miramar, United States (KNKX) KNKX
1019 km
Key West, United States (KNQX) KNQX
2541 km
Allegiant Air Allegiant Air 02:52:04 02:52:04 Sat, 17 Nov 2018 18:21:29 +0000 17/11/2018 6:21 pm
Sat, 17 Nov 2018 21:13:33 +0000 17/11/2018 9:13 pm